createdAt,value
2023-04-23T00:00:17.209Z,83.79
2023-04-23T00:01:17.158Z,83.69
2023-04-23T00:02:17.313Z,83.89
2023-04-23T00:03:17.269Z,83.59
2023-04-23T00:04:17.348Z,83.69
2023-04-23T00:05:17.209Z,83.89
2023-04-23T00:06:17.149Z,83.59
2023-04-23T00:07:17.096Z,83.99
2023-04-23T00:08:17.206Z,83.79
2023-04-23T00:09:17.086Z,83.69
2023-04-23T00:10:17.227Z,83.93
2023-04-23T00:11:17.079Z,83.69
2023-04-23T00:12:17.056Z,83.79
2023-04-23T00:13:17.061Z,84.20
2023-04-23T00:14:17.056Z,84.50
2023-04-23T00:15:17.062Z,84.80
2023-04-23T00:16:17.114Z,84.70
2023-04-23T00:17:17.016Z,85.35
2023-04-23T00:18:17.014Z,85.66
2023-04-23T00:19:17.000Z,86.16
2023-04-23T00:20:17.042Z,86.07
2023-04-23T00:21:16.996Z,85.86
2023-04-23T00:22:16.986Z,86.27
2023-04-23T00:23:16.977Z,86.27
2023-04-23T00:24:16.969Z,86.71
2023-04-23T00:25:16.994Z,87.08
2023-04-23T00:26:16.960Z,86.61
2023-04-23T00:27:16.949Z,87.59
2023-04-23T00:28:16.975Z,87.38
2023-04-23T00:29:16.941Z,87.63
2023-04-23T00:30:16.941Z,88.10
2023-04-23T00:31:16.982Z,88.30
2023-04-23T00:32:16.916Z,88.10
2023-04-23T00:33:16.911Z,87.93
2023-04-23T00:34:16.894Z,87.93
2023-04-23T00:35:16.893Z,87.84
2023-04-23T00:36:16.903Z,87.43
2023-04-23T00:37:16.883Z,87.53
2023-04-23T00:38:16.934Z,88.13
2023-04-23T00:39:16.858Z,88.08
2023-04-23T00:40:16.872Z,88.65
2023-04-23T00:41:16.885Z,88.79
2023-04-23T00:42:16.826Z,89.00
2023-04-23T00:43:16.987Z,89.20
2023-04-23T00:44:16.814Z,89.40
2023-04-23T00:45:16.895Z,89.20
2023-04-23T00:46:16.946Z,89.61
2023-04-23T00:47:16.842Z,89.61
2023-04-23T00:48:16.784Z,90.42
2023-04-23T00:49:16.784Z,90.25
2023-04-23T00:50:17.785Z,90.31
2023-04-23T00:51:16.760Z,90.31
2023-04-23T00:52:16.746Z,90.25
2023-04-23T00:53:16.742Z,90.77
2023-04-23T00:54:16.731Z,91.17
2023-04-23T00:55:16.719Z,91.48
2023-04-23T00:56:16.744Z,91.58
2023-04-23T00:57:16.718Z,90.86
2023-04-23T00:58:16.725Z,91.78
2023-04-23T00:59:16.701Z,91.78
2023-04-23T01:00:16.684Z,91.48
2023-04-23T01:01:16.741Z,91.99
2023-04-23T01:02:16.713Z,92.19
2023-04-23T01:03:16.755Z,92.09
2023-04-23T01:04:16.749Z,91.99
2023-04-23T01:05:16.651Z,92.19
2023-04-23T01:06:16.659Z,92.49
2023-04-23T01:07:16.637Z,92.19
2023-04-23T01:08:16.629Z,92.60
2023-04-23T01:09:16.651Z,93.10
2023-04-23T01:10:16.624Z,92.49
2023-04-23T01:11:16.636Z,92.90
2023-04-23T01:12:16.598Z,92.49
2023-04-23T01:13:16.960Z,93.41
2023-04-23T01:14:16.625Z,93.41
2023-04-23T01:15:16.572Z,93.21
2023-04-23T01:16:16.603Z,93.31
2023-04-23T01:17:16.578Z,93.01
2023-04-23T01:18:16.677Z,93.25
2023-04-23T01:19:16.554Z,93.25
2023-04-23T01:20:17.573Z,93.66
2023-04-23T01:21:16.561Z,93.66
2023-04-23T01:22:16.528Z,93.45
2023-04-23T01:23:16.546Z,93.05
2023-04-23T01:24:16.582Z,93.71
2023-04-23T01:25:16.491Z,93.86
2023-04-23T01:26:16.510Z,93.92
2023-04-23T01:27:16.485Z,94.37
2023-04-23T01:28:16.496Z,94.27
2023-04-23T01:29:16.468Z,94.78
2023-04-23T01:30:16.463Z,95.08
2023-04-23T01:31:16.514Z,94.37
2023-04-23T01:32:16.441Z,94.68
2023-04-23T01:33:16.440Z,94.78
2023-04-23T01:34:16.413Z,94.27
2023-04-23T01:35:17.442Z,94.57
2023-04-23T01:36:16.466Z,94.78
2023-04-23T01:37:16.401Z,94.78
2023-04-23T01:38:16.410Z,95.13
2023-04-23T01:39:16.386Z,94.98
2023-04-23T01:40:16.379Z,94.88
2023-04-23T01:41:16.398Z,94.98
2023-04-23T01:42:16.366Z,94.78
2023-04-23T01:43:16.356Z,94.88
2023-04-23T01:44:16.339Z,94.78
2023-04-23T01:45:16.406Z,94.88
2023-04-23T01:46:16.386Z,95.29
2023-04-23T01:47:16.333Z,95.08
2023-04-23T01:48:16.330Z,95.29
2023-04-23T01:49:16.310Z,95.29
2023-04-23T01:50:16.302Z,95.29
2023-04-23T01:51:16.327Z,95.39
2023-04-23T01:52:16.305Z,95.69
2023-04-23T01:53:16.291Z,95.39
2023-04-23T01:54:16.274Z,95.59
2023-04-23T01:55:16.278Z,95.69
2023-04-23T01:56:16.277Z,95.69
2023-04-23T01:57:16.271Z,96.04
2023-04-23T01:58:16.291Z,95.49
2023-04-23T01:59:16.224Z,95.18
2023-04-23T02:00:16.215Z,95.90
2023-04-23T02:01:16.262Z,95.59
2023-04-23T02:02:16.239Z,95.53
2023-04-23T02:03:16.343Z,96.10
2023-04-23T02:04:16.336Z,96.25
2023-04-23T02:05:16.179Z,96.45
2023-04-23T02:06:16.205Z,96.66
2023-04-23T02:07:16.169Z,96.04
2023-04-23T02:08:16.165Z,96.35
2023-04-23T02:09:16.175Z,96.86
2023-04-23T02:10:16.152Z,96.66
2023-04-23T02:11:16.171Z,97.37
2023-04-23T02:12:16.132Z,97.37
2023-04-23T02:13:16.116Z,97.06
2023-04-23T02:14:16.122Z,97.27
2023-04-23T02:15:16.098Z,96.96
2023-04-23T02:16:16.199Z,97.37
2023-04-23T02:17:16.083Z,96.86
2023-04-23T02:18:16.147Z,96.86
2023-04-23T02:19:16.148Z,97.06
2023-04-23T02:20:17.063Z,97.06
2023-04-23T02:21:16.075Z,96.96
2023-04-23T02:22:16.266Z,97.37
2023-04-23T02:23:16.070Z,97.37
2023-04-23T02:24:16.043Z,97.27
2023-04-23T02:25:16.015Z,97.47
2023-04-23T02:26:16.038Z,97.37
2023-04-23T02:27:17.019Z,97.27
2023-04-23T02:28:16.116Z,97.98
2023-04-23T02:29:15.997Z,97.52
2023-04-23T02:30:15.995Z,97.57
2023-04-23T02:31:16.055Z,97.98
2023-04-23T02:32:15.965Z,97.88
2023-04-23T02:33:16.113Z,98.08
2023-04-23T02:34:15.955Z,97.88
2023-04-23T02:35:15.945Z,97.82
2023-04-23T02:36:16.002Z,97.72
2023-04-23T02:37:15.943Z,97.41
2023-04-23T02:38:15.933Z,97.82
2023-04-23T02:39:16.921Z,97.57
2023-04-23T02:40:15.922Z,97.62
2023-04-23T02:41:15.984Z,97.67
2023-04-23T02:42:15.890Z,98.02
2023-04-23T02:43:15.885Z,98.13
2023-04-23T02:44:15.896Z,98.02
2023-04-23T02:45:15.871Z,98.23
2023-04-23T02:46:15.996Z,98.43
2023-04-23T02:47:15.860Z,98.23
2023-04-23T02:48:15.844Z,98.13
2023-04-23T02:49:15.841Z,98.23
2023-04-23T02:50:15.833Z,98.54
2023-04-23T02:51:15.855Z,98.54
2023-04-23T02:52:15.828Z,98.64
2023-04-23T02:53:15.806Z,98.54
2023-04-23T02:54:15.811Z,98.39
2023-04-23T02:55:15.794Z,98.84
2023-04-23T02:56:15.840Z,98.84
2023-04-23T02:57:15.788Z,98.54
2023-04-23T02:58:15.777Z,98.74
2023-04-23T02:59:15.759Z,98.84
2023-04-23T03:00:15.810Z,98.84
2023-04-23T03:01:15.808Z,98.84
2023-04-23T03:02:15.789Z,98.64
2023-04-23T03:03:15.820Z,98.74
2023-04-23T03:04:15.782Z,99.04
2023-04-23T03:05:15.739Z,99.04
2023-04-23T03:06:15.738Z,99.04
2023-04-23T03:07:15.699Z,99.35
2023-04-23T03:08:15.693Z,99.25
2023-04-23T03:09:15.690Z,99.15
2023-04-23T03:10:15.718Z,99.66
2023-04-23T03:11:15.690Z,99.35
2023-04-23T03:12:15.676Z,99.45
2023-04-23T03:13:15.643Z,99.15
2023-04-23T03:14:15.690Z,98.94
2023-04-23T03:15:15.632Z,99.86
2023-04-23T03:16:15.680Z,99.86
2023-04-23T03:17:15.627Z,99.80
2023-04-23T03:18:15.634Z,99.66
2023-04-23T03:19:15.613Z,99.76
2023-04-23T03:20:15.601Z,99.96
2023-04-23T03:21:15.600Z,99.86
2023-04-23T03:22:15.660Z,99.55
2023-04-23T03:23:15.583Z,99.80
2023-04-23T03:24:15.569Z,99.99
2023-04-23T03:25:15.573Z,99.99
2023-04-23T03:26:15.558Z,99.99
2023-04-23T03:27:15.573Z,99.99
2023-04-23T03:28:15.548Z,99.99
2023-04-23T03:29:15.540Z,99.99
2023-04-23T03:30:15.517Z,99.99
2023-04-23T03:31:15.558Z,99.96
2023-04-23T03:32:15.596Z,99.96
2023-04-23T03:33:15.542Z,99.96
2023-04-23T03:34:15.501Z,99.99
2023-04-23T03:35:15.492Z,99.99
2023-04-23T03:36:15.488Z,99.99
2023-04-23T03:37:15.506Z,99.99
2023-04-23T03:38:15.470Z,99.99
2023-04-23T03:39:15.472Z,99.99
2023-04-23T03:40:15.432Z,99.99
2023-04-23T03:41:15.430Z,99.99
2023-04-23T03:42:15.461Z,99.99
2023-04-23T03:43:15.413Z,99.99
2023-04-23T03:44:15.418Z,99.99
2023-04-23T03:45:15.405Z,99.99
2023-04-23T03:46:15.452Z,99.70
2023-04-23T03:47:15.429Z,98.93
2023-04-23T03:48:15.400Z,97.81
2023-04-23T03:49:15.376Z,96.33
2023-04-23T03:50:15.365Z,95.61
2023-04-23T03:51:15.358Z,95.00
2023-04-23T03:52:15.402Z,95.92
2023-04-23T03:53:15.339Z,95.81
2023-04-23T03:54:15.358Z,96.02
2023-04-23T03:55:15.325Z,93.88
2023-04-23T03:56:15.319Z,93.77
2023-04-23T03:57:15.349Z,93.57
2023-04-23T03:58:15.305Z,92.86
2023-04-23T03:59:15.293Z,90.41
2023-04-23T04:00:15.331Z,89.43
2023-04-23T04:01:15.283Z,89.49
2023-04-23T04:02:15.388Z,90.96
2023-04-23T04:03:15.391Z,90.35
2023-04-23T04:04:15.570Z,90.08
2023-04-23T04:05:15.335Z,90.70
2023-04-23T04:06:15.251Z,90.19
2023-04-23T04:07:15.259Z,91.00
2023-04-23T04:08:15.223Z,90.29
2023-04-23T04:09:15.221Z,90.75
2023-04-23T04:10:15.215Z,89.58
2023-04-23T04:11:15.195Z,89.58
2023-04-23T04:12:15.230Z,90.70
2023-04-23T04:13:16.181Z,90.29
2023-04-23T04:14:15.176Z,90.90
2023-04-23T04:15:15.174Z,91.88
2023-04-23T04:16:15.185Z,90.90
2023-04-23T04:17:15.159Z,90.80
2023-04-23T04:18:15.246Z,91.82
2023-04-23T04:19:15.506Z,91.92
2023-04-23T04:20:15.164Z,92.29
2023-04-23T04:21:15.127Z,91.88
2023-04-23T04:22:15.138Z,91.92
2023-04-23T04:23:15.138Z,91.41
2023-04-23T04:24:15.105Z,92.08
2023-04-23T04:25:15.104Z,92.43
2023-04-23T04:26:15.110Z,92.02
2023-04-23T04:27:15.073Z,92.43
2023-04-23T04:28:15.097Z,92.13
2023-04-23T04:29:15.091Z,92.64
2023-04-23T04:30:15.050Z,93.55
2023-04-23T04:31:15.076Z,93.45
2023-04-23T04:32:15.038Z,93.76
2023-04-23T04:33:15.065Z,93.45
2023-04-23T04:34:15.020Z,94.17
2023-04-23T04:35:15.027Z,94.01
2023-04-23T04:36:15.007Z,94.32
2023-04-23T04:37:15.004Z,94.11
2023-04-23T04:38:15.022Z,95.13
2023-04-23T04:39:14.999Z,94.32
2023-04-23T04:40:14.976Z,95.13
2023-04-23T04:41:14.962Z,94.93
2023-04-23T04:42:15.001Z,95.48
2023-04-23T04:43:14.980Z,95.75
2023-04-23T04:44:14.944Z,95.64
2023-04-23T04:45:14.969Z,95.85
2023-04-23T04:46:14.955Z,95.75
2023-04-23T04:47:14.945Z,96.05
2023-04-23T04:48:15.001Z,96.05
2023-04-23T04:49:15.903Z,95.80
2023-04-23T04:50:14.901Z,96.42
2023-04-23T04:51:14.891Z,96.26
2023-04-23T04:52:14.920Z,96.15
2023-04-23T04:53:14.904Z,96.05
2023-04-23T04:54:14.897Z,95.85
2023-04-23T04:55:14.926Z,95.70
2023-04-23T04:56:14.857Z,95.64
2023-04-23T04:57:14.917Z,95.95
2023-04-23T04:58:14.829Z,96.46
2023-04-23T04:59:14.831Z,96.01
2023-04-23T05:00:14.825Z,96.11
2023-04-23T05:01:14.837Z,95.70
2023-04-23T05:02:14.901Z,96.11
2023-04-23T05:03:14.852Z,95.80
2023-04-23T05:04:14.980Z,96.01
2023-04-23T05:05:14.785Z,95.80
2023-04-23T05:06:14.789Z,95.80
2023-04-23T05:07:14.929Z,95.80
2023-04-23T05:08:14.761Z,95.64
2023-04-23T05:09:14.759Z,95.19
2023-04-23T05:10:14.754Z,96.01
2023-04-23T05:11:15.736Z,95.70
2023-04-23T05:12:14.733Z,96.11
2023-04-23T05:13:14.774Z,95.39
2023-04-23T05:14:14.725Z,95.80
2023-04-23T05:15:14.719Z,96.21
2023-04-23T05:16:14.761Z,96.72
2023-04-23T05:17:14.695Z,95.80
2023-04-23T05:18:14.717Z,96.01
2023-04-23T05:19:14.748Z,96.42
2023-04-23T05:20:14.706Z,96.83
2023-04-23T05:21:14.670Z,96.51
2023-04-23T05:22:48.212Z,96.56
2023-04-23T05:23:14.683Z,97.28
2023-04-23T05:24:14.647Z,97.44
2023-04-23T05:25:14.648Z,97.13
2023-04-23T05:26:14.633Z,97.44
2023-04-23T05:27:14.635Z,97.28
2023-04-23T05:28:14.651Z,97.89
2023-04-23T05:29:14.612Z,97.89
2023-04-23T05:30:14.611Z,98.14
2023-04-23T05:31:14.618Z,97.89
2023-04-23T05:32:14.600Z,98.10
2023-04-23T05:33:14.668Z,97.89
2023-04-23T05:34:14.585Z,98.30
2023-04-23T05:35:14.556Z,97.99
2023-04-23T05:36:14.560Z,97.99
2023-04-23T05:37:14.552Z,97.79
2023-04-23T05:38:14.575Z,97.79
2023-04-23T05:39:14.539Z,97.99
2023-04-23T05:40:14.546Z,98.46
2023-04-23T05:41:14.520Z,98.05
2023-04-23T05:42:14.501Z,98.15
2023-04-23T05:43:14.536Z,97.95
2023-04-23T05:44:14.494Z,98.15
2023-04-23T05:45:14.479Z,97.64
2023-04-23T05:46:14.503Z,97.54
2023-04-23T05:47:14.465Z,97.54
2023-04-23T05:48:14.503Z,97.44
2023-04-23T05:49:14.552Z,98.15
2023-04-23T05:50:14.441Z,97.80
2023-04-23T05:51:14.476Z,97.70
2023-04-23T05:52:14.431Z,97.49
2023-04-23T05:53:14.459Z,97.29
2023-04-23T05:54:14.425Z,97.39
2023-04-23T05:55:14.437Z,97.39
2023-04-23T05:56:14.389Z,97.08
2023-04-23T05:57:14.414Z,97.08
2023-04-23T05:58:14.399Z,96.53
2023-04-23T05:59:14.392Z,96.98
2023-04-23T06:00:14.369Z,97.04
2023-04-23T06:01:14.356Z,96.84
2023-04-23T06:02:14.376Z,96.63
2023-04-23T06:03:14.771Z,96.22
2023-04-23T06:04:14.493Z,95.67
2023-04-23T06:05:14.500Z,95.97
2023-04-23T06:06:15.315Z,95.73
2023-04-23T06:07:14.308Z,95.58
2023-04-23T06:08:14.325Z,95.68
2023-04-23T06:09:14.293Z,94.11
2023-04-23T06:10:14.841Z,94.42
2023-04-23T06:11:14.281Z,93.50
2023-04-23T06:12:14.287Z,93.70
2023-04-23T06:13:14.311Z,93.95
2023-04-23T06:14:14.288Z,93.24
2023-04-23T06:15:14.252Z,93.40
2023-04-23T06:16:14.261Z,93.64
2023-04-23T06:17:14.237Z,94.05
2023-04-23T06:18:14.345Z,94.26
2023-04-23T06:19:14.204Z,94.15
2023-04-23T06:20:14.200Z,94.97
2023-04-23T06:21:14.198Z,95.03
2023-04-23T06:22:14.195Z,93.85
2023-04-23T06:23:14.231Z,94.21
2023-04-23T06:24:14.179Z,94.11
2023-04-23T06:25:14.227Z,92.64
2023-04-23T06:26:14.277Z,92.09
2023-04-23T06:27:14.196Z,92.14
2023-04-23T06:28:14.204Z,91.53
2023-04-23T06:29:14.171Z,90.52
2023-04-23T06:30:14.166Z,90.58
2023-04-23T06:31:14.158Z,92.00
2023-04-23T06:32:14.111Z,90.13
2023-04-23T06:33:14.149Z,89.62
2023-04-23T06:34:14.092Z,89.76
2023-04-23T06:35:14.085Z,89.31
2023-04-23T06:36:14.084Z,89.37
2023-04-23T06:37:14.079Z,89.58
2023-04-23T06:38:14.083Z,89.54
2023-04-23T06:39:14.111Z,87.81
2023-04-23T06:40:14.069Z,88.78
2023-04-23T06:41:14.034Z,88.38
2023-04-23T06:42:14.034Z,87.10
2023-04-23T06:43:14.054Z,86.55
2023-04-23T06:44:14.012Z,86.76
2023-04-23T06:45:14.018Z,86.90
2023-04-23T06:46:13.998Z,85.44
2023-04-23T06:47:13.984Z,85.44
2023-04-23T06:48:14.136Z,85.84
2023-04-23T06:49:13.976Z,86.55
2023-04-23T06:50:14.031Z,86.55
2023-04-23T06:51:13.942Z,86.05
2023-04-23T06:52:14.944Z,85.84
2023-04-23T06:53:13.935Z,85.33
2023-04-23T06:54:13.977Z,85.33
2023-04-23T06:55:13.923Z,85.74
2023-04-23T06:56:13.903Z,85.50
2023-04-23T06:57:13.901Z,84.58
2023-04-23T06:58:14.876Z,84.55
2023-04-23T06:59:13.914Z,83.94
2023-04-23T07:00:13.886Z,84.14
2023-04-23T07:01:14.070Z,83.39
2023-04-23T07:02:13.880Z,83.59
2023-04-23T07:03:13.940Z,83.18
2023-04-23T07:04:13.935Z,83.25
2023-04-23T07:05:13.880Z,83.35
2023-04-23T07:06:13.862Z,81.97
2023-04-23T07:07:13.878Z,82.34
2023-04-23T07:08:13.827Z,82.24
2023-04-23T07:09:13.881Z,82.14
2023-04-23T07:10:15.041Z,82.28
2023-04-23T07:11:13.829Z,82.54
2023-04-23T07:12:14.847Z,81.67
2023-04-23T07:13:13.906Z,81.57
2023-04-23T07:14:14.192Z,81.30
2023-04-23T07:15:13.899Z,82.72
2023-04-23T07:16:13.840Z,83.80
2023-04-23T07:17:13.782Z,82.48
2023-04-23T07:18:13.757Z,82.84
2023-04-23T07:19:13.791Z,81.23
2023-04-23T07:20:13.750Z,80.82
2023-04-23T07:21:13.735Z,81.12
2023-04-23T07:22:13.727Z,80.65
2023-04-23T07:23:13.725Z,80.35
2023-04-23T07:24:13.826Z,81.26
2023-04-23T07:25:13.713Z,80.29
2023-04-23T07:26:14.293Z,80.45
2023-04-23T07:27:13.772Z,79.94
2023-04-23T07:28:13.689Z,79.40
2023-04-23T07:29:13.706Z,80.01
2023-04-23T07:30:13.676Z,79.20
2023-04-23T07:31:13.663Z,79.24
2023-04-23T07:32:13.706Z,79.03
2023-04-23T07:33:13.650Z,80.05
2023-04-23T07:34:13.664Z,77.88
2023-04-23T07:35:13.645Z,79.60
2023-04-23T07:36:13.647Z,79.85
2023-04-23T07:37:13.613Z,79.40
2023-04-23T07:38:13.602Z,77.58
2023-04-23T07:39:13.632Z,78.15
2023-04-23T07:40:13.631Z,77.44
2023-04-23T07:41:13.582Z,78.62
2023-04-23T07:42:13.687Z,77.81
2023-04-23T07:43:13.585Z,78.28
2023-04-23T07:44:13.589Z,78.88
2023-04-23T07:45:13.560Z,77.53
2023-04-23T07:46:13.581Z,77.64
2023-04-23T07:47:13.537Z,76.42
2023-04-23T07:48:13.603Z,76.05
2023-04-23T07:49:13.557Z,76.02
2023-04-23T07:50:13.550Z,76.12
2023-04-23T07:51:13.512Z,77.84
2023-04-23T07:52:13.507Z,77.29
2023-04-23T07:53:13.493Z,74.19
2023-04-23T07:54:13.520Z,73.99
2023-04-23T07:55:13.497Z,75.31
2023-04-23T07:56:13.472Z,75.71
2023-04-23T07:57:13.460Z,76.22
2023-04-23T07:58:13.451Z,75.68
2023-04-23T07:59:13.474Z,75.27
2023-04-23T08:00:13.433Z,75.37
2023-04-23T08:01:13.434Z,73.82
2023-04-23T08:02:13.491Z,72.81
2023-04-23T08:03:13.572Z,72.64
2023-04-23T08:04:13.622Z,72.85
2023-04-23T08:05:13.439Z,73.46
2023-04-23T08:06:13.404Z,72.75
2023-04-23T08:07:13.388Z,71.70
2023-04-23T08:08:13.373Z,71.33
2023-04-23T08:09:13.395Z,72.95
2023-04-23T08:10:13.362Z,70.66
2023-04-23T08:11:13.370Z,71.87
2023-04-23T08:12:13.350Z,73.90
2023-04-23T08:13:13.371Z,74.30
2023-04-23T08:14:13.350Z,75.10
2023-04-23T08:15:13.343Z,74.30
2023-04-23T08:16:13.406Z,73.39
2023-04-23T08:17:13.308Z,72.92
2023-04-23T08:18:13.296Z,73.32
2023-04-23T08:19:13.302Z,73.63
2023-04-23T08:20:13.301Z,73.83
2023-04-23T08:21:13.265Z,73.93
2023-04-23T08:22:13.274Z,72.31
2023-04-23T08:23:13.256Z,72.17
2023-04-23T08:24:13.241Z,72.31
2023-04-23T08:25:13.278Z,71.80
2023-04-23T08:26:13.235Z,69.75
2023-04-23T08:27:13.227Z,69.55
2023-04-23T08:28:13.215Z,69.68
2023-04-23T08:29:13.211Z,69.85
2023-04-23T08:30:13.235Z,69.82
2023-04-23T08:31:25.810Z,69.42
2023-04-23T08:32:15.206Z,70.36
2023-04-23T08:33:13.171Z,70.56
2023-04-23T08:34:13.167Z,71.10
2023-04-23T08:35:13.190Z,71.80
2023-04-23T08:36:13.148Z,71.70
2023-04-23T08:37:23.236Z,71.06
2023-04-23T08:38:15.135Z,70.06
2023-04-23T08:39:13.145Z,70.53
2023-04-23T08:40:13.148Z,70.53
2023-04-23T08:41:14.116Z,70.39
2023-04-23T08:42:13.101Z,68.17
2023-04-23T08:43:13.100Z,67.57
2023-04-23T08:44:13.108Z,67.13
2023-04-23T08:45:13.146Z,66.36
2023-04-23T08:46:13.104Z,66.86
2023-04-23T08:47:13.069Z,67.36
2023-04-23T08:48:13.106Z,66.42
2023-04-23T08:49:13.058Z,66.02
2023-04-23T08:50:13.075Z,65.52
2023-04-23T08:51:13.042Z,65.72
2023-04-23T08:52:13.072Z,65.89
2023-04-23T08:53:13.032Z,65.19
2023-04-23T08:54:13.054Z,66.39
2023-04-23T08:55:13.080Z,65.79
2023-04-23T08:56:13.053Z,65.39
2023-04-23T08:57:13.004Z,65.56
2023-04-23T08:58:13.022Z,65.06
2023-04-23T08:59:13.002Z,65.46
2023-04-23T09:00:13.009Z,65.76
2023-04-23T09:01:12.995Z,66.77
2023-04-23T09:02:13.047Z,65.26
2023-04-23T09:03:13.111Z,63.95
2023-04-23T09:04:12.965Z,63.95
2023-04-23T09:05:12.976Z,63.51
2023-04-23T09:06:12.939Z,65.33
2023-04-23T09:07:12.933Z,64.72
2023-04-23T09:08:12.914Z,64.89
2023-04-23T09:09:12.924Z,63.18
2023-04-23T09:10:14.074Z,63.56
2023-04-23T09:11:12.898Z,62.18
2023-04-23T09:12:12.898Z,63.11
2023-04-23T09:13:12.877Z,63.62
2023-04-23T09:14:12.862Z,63.21
2023-04-23T09:15:12.939Z,63.21
2023-04-23T09:16:12.894Z,63.48
2023-04-23T09:17:12.842Z,63.05
2023-04-23T09:18:12.841Z,63.65
2023-04-23T09:19:12.827Z,61.82
2023-04-23T09:20:12.884Z,61.14
2023-04-23T09:21:12.814Z,62.07
2023-04-23T09:22:12.810Z,62.61
2023-04-23T09:23:12.808Z,62.64
2023-04-23T09:24:12.804Z,61.96
2023-04-23T09:25:12.822Z,62.29
2023-04-23T09:26:12.781Z,63.37
2023-04-23T09:27:12.779Z,62.81
2023-04-23T09:28:12.796Z,63.51
2023-04-23T09:29:12.772Z,62.85
2023-04-23T09:30:12.804Z,60.67
2023-04-23T09:31:12.752Z,62.27
2023-04-23T09:32:12.778Z,61.85
2023-04-23T09:33:12.732Z,63.18
2023-04-23T09:34:12.717Z,62.38
2023-04-23T09:35:12.780Z,62.58
2023-04-23T09:36:12.712Z,63.48
2023-04-23T09:37:12.704Z,63.14
2023-04-23T09:38:12.695Z,63.57
2023-04-23T09:39:12.701Z,65.86
2023-04-23T09:40:12.724Z,64.62
2023-04-23T09:41:12.667Z,63.96
2023-04-23T09:42:12.657Z,63.15
2023-04-23T09:43:13.663Z,63.62
2023-04-23T09:44:12.661Z,62.82
2023-04-23T09:45:12.678Z,62.29
2023-04-23T09:46:12.667Z,62.82
2023-04-23T09:47:12.629Z,62.82
2023-04-23T09:48:12.623Z,61.27
2023-04-23T09:49:12.636Z,62.84
2023-04-23T09:50:12.663Z,62.97
2023-04-23T09:51:12.626Z,63.60
2023-04-23T09:52:12.585Z,64.31
2023-04-23T09:53:12.602Z,63.33
2023-04-23T09:54:12.571Z,65.48
2023-04-23T09:55:12.600Z,65.85
2023-04-23T09:56:12.563Z,65.38
2023-04-23T09:57:12.557Z,65.65
2023-04-23T09:58:12.586Z,65.28
2023-04-23T09:59:12.541Z,65.68
2023-04-23T10:00:14.763Z,65.78
2023-04-23T10:01:13.577Z,65.78
2023-04-23T10:02:12.642Z,66.39
2023-04-23T10:03:12.798Z,65.88
2023-04-23T10:04:12.630Z,65.68
2023-04-23T10:05:23.669Z,66.08
2023-04-23T10:06:25.768Z,65.62
2023-04-23T10:07:19.498Z,65.39
2023-04-23T10:08:14.541Z,64.35
2023-04-23T10:09:12.456Z,63.31
2023-04-23T10:10:12.489Z,62.84
2023-04-23T10:11:20.372Z,63.62
2023-04-23T10:13:13.447Z,64.49
2023-04-23T10:14:12.430Z,63.15
2023-04-23T10:15:12.448Z,61.94
2023-04-23T10:16:22.428Z,62.52
2023-04-23T10:17:14.402Z,63.25
2023-04-23T10:18:12.401Z,61.91
2023-04-23T10:19:12.404Z,63.02
2023-04-23T10:20:12.371Z,60.94
2023-04-23T10:21:12.394Z,61.01
2023-04-23T10:23:14.357Z,59.91
2023-04-23T10:24:12.343Z,59.30
2023-04-23T10:25:12.379Z,60.31
2023-04-23T10:26:12.342Z,61.41
2023-04-23T10:27:24.828Z,60.81
2023-04-23T10:28:14.320Z,60.11
2023-04-23T10:29:12.296Z,60.16
2023-04-23T10:30:12.299Z,61.30
2023-04-23T10:31:12.346Z,61.53
2023-04-23T10:32:12.287Z,61.49
2023-04-23T10:33:22.489Z,63.20
2023-04-23T10:34:14.336Z,63.13
2023-04-23T10:35:12.299Z,63.10
2023-04-23T10:36:12.297Z,63.37
2023-04-23T10:37:12.241Z,62.44
2023-04-23T10:38:12.240Z,61.90
2023-04-23T10:39:12.250Z,61.27
2023-04-23T10:40:12.228Z,61.24
2023-04-23T10:41:12.246Z,60.91
2023-04-23T10:42:12.219Z,61.49
2023-04-23T10:43:12.194Z,59.47
2023-04-23T10:44:12.216Z,60.25
2023-04-23T10:45:23.442Z,59.52
2023-04-23T10:46:14.239Z,58.09
2023-04-23T10:47:12.173Z,58.29
2023-04-23T10:48:12.169Z,57.59
2023-04-23T10:49:12.157Z,58.42
2023-04-23T10:50:12.150Z,59.55
2023-04-23T10:51:35.379Z,59.62
2023-04-23T10:52:19.565Z,59.14
2023-04-23T10:53:14.122Z,60.93
2023-04-23T10:54:12.126Z,58.22
2023-04-23T10:55:12.103Z,57.48
2023-04-23T10:56:12.124Z,56.61
2023-04-23T10:57:12.096Z,57.24
2023-04-23T10:58:12.089Z,58.22
2023-04-23T10:59:12.075Z,57.31
2023-04-23T11:00:12.071Z,58.81
2023-04-23T11:01:12.095Z,57.01
2023-04-23T11:02:12.101Z,56.91
2023-04-23T11:03:12.129Z,56.63
2023-04-23T11:04:12.202Z,58.37
2023-04-23T11:05:12.028Z,57.37
2023-04-23T11:06:12.054Z,56.86
2023-04-23T11:07:12.024Z,57.37
2023-04-23T11:08:19.407Z,58.37
2023-04-23T11:09:14.049Z,57.67
2023-04-23T11:10:12.034Z,57.77
2023-04-23T11:11:12.030Z,59.27
2023-04-23T11:12:11.977Z,58.40
2023-04-23T11:13:11.972Z,58.60
2023-04-23T11:14:11.978Z,58.29
2023-04-23T11:15:11.966Z,58.77
2023-04-23T11:16:12.018Z,57.77
2023-04-23T11:17:11.946Z,58.09
2023-04-23T11:18:11.935Z,58.02
2023-04-23T11:19:11.922Z,60.06
2023-04-23T11:20:11.909Z,59.76
2023-04-23T11:21:11.947Z,60.80
2023-04-23T11:22:11.921Z,60.97
2023-04-23T11:24:30.498Z,59.62
2023-04-23T11:25:30.651Z,60.52
2023-04-23T11:26:30.566Z,60.49
2023-04-23T11:27:30.483Z,58.98
2023-04-23T11:28:30.501Z,59.06
2023-04-23T11:29:30.658Z,59.06
2023-04-23T11:30:30.515Z,59.06
2023-04-23T11:31:30.491Z,59.74
2023-04-23T11:32:30.616Z,58.45
2023-04-23T11:33:30.461Z,58.95
2023-04-23T11:34:30.515Z,59.53
2023-04-23T11:35:30.656Z,57.32
2023-04-23T11:36:30.468Z,56.71
2023-04-23T11:37:30.437Z,56.92
2023-04-23T11:38:30.420Z,57.19
2023-04-23T11:39:30.388Z,55.91
2023-04-23T11:40:30.383Z,55.83
2023-04-23T11:41:31.529Z,57.24
2023-04-23T11:42:31.519Z,57.85
2023-04-23T11:43:31.524Z,59.16
2023-04-23T11:44:32.248Z,58.95
2023-04-23T11:45:32.604Z,57.82
2023-04-23T11:46:31.657Z,56.99
2023-04-23T11:47:31.482Z,56.86
2023-04-23T11:48:31.471Z,55.60
2023-04-23T11:49:31.464Z,55.10
2023-04-23T11:50:31.465Z,55.71
2023-04-23T11:51:31.509Z,55.23
2023-04-23T11:52:31.436Z,54.83
2023-04-23T11:53:31.445Z,55.33
2023-04-23T11:54:31.428Z,55.13
2023-04-23T11:55:31.395Z,53.85
2023-04-23T11:56:31.436Z,55.46
2023-04-23T11:57:31.377Z,55.18
2023-04-23T11:58:31.371Z,56.56
2023-04-23T11:59:31.391Z,55.08
2023-04-23T12:00:31.356Z,55.18
2023-04-23T12:01:31.375Z,54.17
2023-04-23T12:02:31.408Z,54.80
2023-04-23T12:03:31.532Z,55.31
2023-04-23T12:04:31.433Z,55.51
2023-04-23T12:05:31.367Z,55.31
2023-04-23T12:06:31.335Z,54.40
2023-04-23T12:07:31.297Z,53.70
2023-04-23T12:08:31.306Z,54.50
2023-04-23T12:09:31.346Z,53.09
2023-04-23T12:10:31.280Z,53.12
2023-04-23T12:11:31.314Z,54.53
2023-04-23T12:12:31.264Z,53.90
2023-04-23T12:13:31.260Z,55.41
2023-04-23T12:14:31.324Z,53.77
2023-04-23T12:15:31.248Z,53.47
2023-04-23T12:16:31.277Z,54.88
2023-04-23T12:17:31.243Z,54.40
2023-04-23T12:18:31.224Z,55.18
2023-04-23T12:19:32.063Z,54.08
2023-04-23T12:20:31.214Z,53.67
2023-04-23T12:21:32.242Z,54.00
2023-04-23T12:22:31.723Z,55.21
2023-04-23T12:23:31.202Z,54.38
2023-04-23T12:24:31.226Z,55.18
2023-04-23T12:25:31.157Z,53.47
2023-04-23T12:26:32.245Z,53.80
2023-04-23T12:27:31.183Z,53.90
2023-04-23T12:28:31.142Z,54.00
2023-04-23T12:29:31.139Z,54.40
2023-04-23T12:30:31.163Z,53.83
2023-04-23T12:31:31.312Z,54.53
2023-04-23T12:32:31.135Z,55.21
2023-04-23T12:33:31.146Z,54.71
2023-04-23T12:34:31.093Z,54.63
2023-04-23T12:35:31.093Z,55.23
2023-04-23T12:36:31.142Z,55.21
2023-04-23T12:37:31.158Z,54.10
2023-04-23T12:38:31.084Z,55.03
2023-04-23T12:39:31.060Z,55.63
2023-04-23T12:40:31.057Z,55.23
2023-04-23T12:41:32.314Z,55.23
2023-04-23T12:42:32.031Z,54.73
2023-04-23T12:43:31.030Z,55.23
2023-04-23T12:44:31.707Z,53.32
2023-04-23T12:45:31.012Z,53.70
2023-04-23T12:46:31.048Z,54.00
2023-04-23T12:47:31.014Z,53.90
2023-04-23T12:48:30.995Z,55.21
2023-04-23T12:49:30.977Z,55.11
2023-04-23T12:50:30.965Z,55.68
2023-04-23T12:51:31.097Z,54.85
2023-04-23T12:52:30.979Z,53.95
2023-04-23T12:53:30.942Z,54.13
2023-04-23T12:54:31.628Z,53.12
2023-04-23T12:55:30.935Z,52.01